Disclaimer

Please do not use the information listed here in-flight or in-navigation, as they are not provided to us by the airports but are provided by volunteers, so they might be outdated.

Search


Regions


Airport information page

Radio informations:
Tower (TWR) - 118.4 MHz
Ground (GND) - 121.7 MHz
PIARCO APP - 119.0 MHz

Airport informations:
Latitude: 11° 08' 58.77" N
Longitude: 060° 49' 55.90" W
Elevation: 38 feet - 12 meters
Operating hours: Remarks
Operating agency: Civil government, landing fees and diplomatic clearance may be required
Timezone: UTC-4
Fuel: N/A

Runway information:
11/29 - 9002 x 159 feet< - >2744 x 48 meters

Recent METARs:
TTCP 162300Z 09008KT 9999 FEW018 28/22 Q1011 NOSIG
TTCP 170000Z 10010KT 9999 FEW018 28/23 Q1011 NOSIG
TTCP 170000Z 10010KT 9999 FEW018 28/23 Q1011 NOSIG

Airport on the map: